Time;durP1;ratioP1;P1;durP2;ratioP2;P2;SDS_P1;SDS_P2;PMS_P1;PMS_P2;Temp;Humidity;BMP_temperature;BMP_pressure;BME280_temperature;BME280_humidity;BME280_pressure;Samples;Min_cycle;Max_cycle;Signal;HPM_P1;HPM_P2
2021/10/13 00:01:37;;;;;;;77.60;54.35;;;;;;;9.65;72.33;99688.09;1752736;81;22727;-65
2021/10/13 00:04:04;;;;;;;74.15;54.08;;;;;;;9.65;72.44;99686.78;1747163;80;21486;-66
2021/10/13 00:06:31;;;;;;;78.35;54.55;;;;;;;9.65;72.51;99685.91;1735266;81;20967;-67
2021/10/13 00:08:58;;;;;;;78.97;55.43;;;;;;;9.66;72.58;99687.61;1742727;81;20975;-66
2021/10/13 00:11:27;;;;;;;85.12;55.90;;;;;;;9.67;72.60;99682.20;1734761;81;20975;-66
2021/10/13 00:13:53;;;;;;;81.40;55.88;;;;;;;9.68;72.67;99679.91;1749687;81;21850;-66
2021/10/13 00:16:20;;;;;;;75.20;54.27;;;;;;;9.69;72.75;99682.06;1749814;81;20943;-65
2021/10/13 00:18:46;;;;;;;75.10;53.05;;;;;;;9.67;72.89;99676.92;1740855;81;21038;-66
2021/10/13 00:21:13;;;;;;;74.70;52.38;;;;;;;9.67;73.02;99676.92;1755033;81;21027;-66
2021/10/13 00:23:41;;;;;;;69.45;52.80;;;;;;;9.68;73.15;99680.40;1746130;81;20900;-66
2021/10/13 00:26:07;;;;;;;79.37;53.35;;;;;;;9.67;73.27;99672.97;1736842;81;24016;-66
2021/10/13 00:28:35;;;;;;;77.35;53.52;;;;;;;9.68;73.39;99679.91;1743228;81;20995;-65
2021/10/13 00:31:01;;;;;;;72.65;53.13;;;;;;;9.69;73.47;99683.38;1754597;81;21043;-66
2021/10/13 00:33:28;;;;;;;72.85;52.38;;;;;;;9.70;73.56;99682.41;1761148;81;21003;-66
2021/10/13 00:35:54;;;;;;;72.62;51.88;;;;;;;9.70;73.62;99679.29;1735856;81;21101;-65
2021/10/13 00:38:20;;;;;;;76.97;53.60;;;;;;;9.71;73.70;99681.44;1734866;82;21828;-66
2021/10/13 00:40:47;;;;;;;83.87;55.28;;;;;;;9.69;73.76;99691.29;1756161;81;20960;-66
2021/10/13 00:43:14;;;;;;;77.37;55.38;;;;;;;9.68;73.90;99694.41;1738022;81;21418;-67
2021/10/13 00:45:40;;;;;;;82.40;54.53;;;;;;;9.70;74.06;99695.11;1742160;81;20956;-65
2021/10/13 00:48:07;;;;;;;75.20;53.63;;;;;;;9.71;74.11;99690.67;1753499;81;20992;-65
2021/10/13 00:50:33;;;;;;;75.47;54.75;;;;;;;9.74;74.25;99681.16;1757925;81;21839;-66
2021/10/13 00:53:00;;;;;;;74.17;53.23;;;;;;;9.73;74.38;99676.86;1757755;81;20944;-66
2021/10/13 00:55:26;;;;;;;74.15;54.00;;;;;;;9.75;74.45;99674.95;1732714;81;21019;-65
2021/10/13 00:57:52;;;;;;;75.90;53.95;;;;;;;9.75;74.49;99681.55;1764195;81;20948;-65
2021/10/13 01:00:22;;;;;;;69.90;52.50;;;;;;;9.75;74.50;99685.02;1752991;80;20976;-66
2021/10/13 01:03:12;;;;;;;77.53;54.70;;;;;;;9.75;74.60;99673.63;1740893;81;21823;-66
2021/10/13 01:06:02;;;;;;;77.37;53.80;;;;;;;9.75;74.69;99676.27;1741584;81;20980;-66
2021/10/13 01:08:37;;;;;;;73.28;51.73;;;;;;;9.75;74.78;99670.51;1751143;81;21383;-66
2021/10/13 01:11:26;;;;;;;75.00;52.90;;;;;;;9.77;74.86;99676.13;1741181;79;21404;-66
2021/10/13 01:14:21;;;;;;;71.95;51.73;;;;;;;9.77;74.88;99670.86;1749350;81;20947;-66
2021/10/13 01:16:59;;;;;;;69.77;51.65;;;;;;;9.75;74.90;99669.19;1740607;81;21835;-66
2021/10/13 01:19:54;;;;;;;70.08;52.08;;;;;;;9.74;75.00;99668.81;1746494;81;20860;-65
2021/10/13 01:22:38;;;;;;;77.30;53.78;;;;;;;9.73;75.08;99672.91;1761605;81;20940;-65
2021/10/13 01:25:33;;;;;;;;;;;;;;;9.73;75.16;99671.59;1762961;81;20971;-66
2021/10/13 01:28:08;;;;;;;72.65;52.53;;;;;;;9.71;75.23;99663.81;1765215;80;20136;-66
2021/10/13 01:30:42;;;;;;;69.82;52.65;;;;;;;9.70;75.32;99667.42;1761021;81;21842;-65
2021/10/13 01:33:20;;;;;;;78.45;54.50;;;;;;;9.69;75.37;99659.16;1750020;81;21019;-65
2021/10/13 01:35:49;;;;;;;73.67;53.45;;;;;;;9.70;75.47;99658.19;1748196;81;21039;-66
2021/10/13 01:38:19;;;;;;;77.37;55.55;;;;;;;9.69;75.56;99656.53;1765105;81;21039;-66
2021/10/13 01:40:48;;;;;;;78.30;55.67;;;;;;;9.68;75.66;99656.66;1739695;81;20983;-65
2021/10/13 01:43:14;;;;;;;70.40;53.00;;;;;;;9.69;75.74;99661.80;1750974;81;21789;-65
2021/10/13 01:45:45;;;;;;;69.70;53.40;;;;;;;9.69;75.79;99660.48;1744574;81;21027;-66
2021/10/13 01:48:13;;;;;;;73.78;52.80;;;;;;;9.71;75.83;99653.75;1743230;81;21378;-67
2021/10/13 01:50:40;;;;;;;70.00;52.55;;;;;;;9.70;75.84;99658.19;1738210;81;20984;-65
2021/10/13 01:53:06;;;;;;;74.32;54.60;;;;;;;9.69;75.88;99664.44;1729844;81;21464;-65
2021/10/13 01:55:34;;;;;;;77.65;54.85;;;;;;;9.69;75.91;99661.80;1743508;81;21832;-65
2021/10/13 01:58:01;;;;;;;75.05;54.25;;;;;;;9.70;75.97;99664.78;1737486;81;20936;-67
2021/10/13 02:00:27;;;;;;;77.22;56.18;;;;;;;9.70;76.03;99659.52;1759845;80;21470;-66
2021/10/13 02:02:55;;;;;;;73.55;55.38;;;;;;;9.70;76.10;99664.78;1742335;81;21048;-67
2021/10/13 02:05:21;;;;;;;74.22;55.75;;;;;;;9.71;76.14;99666.94;1737970;81;21051;-65
2021/10/13 02:07:48;;;;;;;76.50;56.60;;;;;;;9.73;76.18;99663.19;1745771;81;21818;-67
2021/10/13 02:10:14;;;;;;;80.25;56.33;;;;;;;9.75;76.13;99670.51;1742077;81;20975;-66
2021/10/13 02:12:45;;;;;;;76.37;53.30;;;;;;;9.78;76.15;99671.20;1736091;81;20956;-66
2021/10/13 02:15:12;;;;;;;72.22;53.15;;;;;;;9.79;76.19;99676.82;1751451;81;21050;-65
2021/10/13 02:17:43;;;;;;;72.58;52.80;;;;;;;9.80;76.19;99677.17;1750722;80;21418;-66
2021/10/13 02:20:11;;;;;;;71.33;52.93;;;;;;;9.80;76.20;99681.13;1765272;81;21809;-66
2021/10/13 02:22:40;;;;;;;69.97;52.13;;;;;;;9.80;76.19;99681.13;1755347;81;20995;-66
2021/10/13 02:25:08;;;;;;;71.77;52.88;;;;;;;9.79;76.17;99685.56;1740437;81;20983;-65
2021/10/13 02:27:46;;;;;;;74.77;53.33;;;;;;;9.78;76.20;99683.07;1745829;81;22199;-66
2021/10/13 02:30:13;;;;;;;76.07;53.13;;;;;;;9.79;76.22;99689.52;1745789;81;21407;-66
2021/10/13 02:32:41;;;;;;;71.22;53.28;;;;;;;9.79;76.26;99690.01;1753810;81;21478;-66
2021/10/13 02:35:09;;;;;;;76.02;53.85;;;;;;;9.81;76.31;99689.38;1739632;81;20952;-66
2021/10/13 02:37:35;;;;;;;72.67;52.33;;;;;;;9.83;76.38;99704.09;1742873;81;20996;-66
2021/10/13 02:40:06;;;;;;;72.35;51.88;;;;;;;9.84;76.44;99704.94;1762731;81;20975;-67
2021/10/13 02:42:34;;;;;;;71.53;52.35;;;;;;;9.83;76.44;99704.59;1762769;81;20980;-66
2021/10/13 02:45:01;;;;;;;67.32;51.10;;;;;;;9.81;76.47;99711.32;1758652;81;21797;-66
2021/10/13 02:47:42;;;;;;;69.55;50.67;;;;;;;9.81;76.45;99710.00;1760816;81;21253;-66
2021/10/13 02:50:17;;;;;;;67.10;51.13;;;;;;;9.82;76.44;99710.34;1747885;81;21005;-66
2021/10/13 02:53:04;;;;;;;69.45;51.02;;;;;;;9.82;76.47;99712.98;1757216;81;21011;-66
2021/10/13 02:55:42;;;;;;;69.20;51.85;;;;;;;9.82;76.56;99716.11;1765786;81;20932;-65
2021/10/13 02:58:47;;;;;;;66.22;52.03;;;;;;;9.83;76.59;99715.14;1750113;81;21830;-65
2021/10/13 03:01:16;;;;;;;71.02;50.50;;;;;;;9.83;76.58;99705.42;1774550;80;21466;-66
2021/10/13 03:03:54;;;;;;;70.45;52.15;;;;;;;9.83;76.65;99710.70;1770509;80;20988;-65
2021/10/13 03:06:20;;;;;;;66.60;50.17;;;;;;;9.81;76.68;99710.00;1777983;80;20965;-66
2021/10/13 03:08:48;;;;;;;66.70;48.80;;;;;;;9.82;76.64;99711.67;1770508;80;21023;-66
2021/10/13 03:11:16;;;;;;;65.67;49.95;;;;;;;9.81;76.67;99721.03;1755762;81;22420;-66
2021/10/13 03:13:45;;;;;;;69.32;52.65;;;;;;;9.79;76.68;99729.57;1755275;81;20954;-66
2021/10/13 03:16:12;;;;;;;67.87;49.10;;;;;;;9.78;76.68;99730.05;1755461;81;21025;-67
2021/10/13 03:18:39;;;;;;;69.47;51.48;;;;;;;9.79;76.71;99731.72;1727624;81;20951;-66
2021/10/13 03:21:05;;;;;;;71.17;52.90;;;;;;;9.76;76.70;99721.45;1703891;82;21003;-65
2021/10/13 03:23:32;;;;;;;72.22;53.28;;;;;;;9.75;76.79;99723.73;1737335;82;21785;-65
2021/10/13 03:26:10;;;;;;;68.47;51.37;;;;;;;9.76;76.82;99722.77;1697423;81;20932;-65
2021/10/13 03:28:39;;;;;;;68.22;52.55;;;;;;;9.75;76.79;99720.61;1762155;79;20987;-66
2021/10/13 03:31:06;;;;;;;65.65;52.17;;;;;;;9.74;76.83;99717.59;1779010;80;21059;-66
2021/10/13 03:33:33;;;;;;;69.42;52.88;;;;;;;9.74;76.84;99714.96;1764394;80;21332;-66
2021/10/13 03:35:59;;;;;;;68.65;51.58;;;;;;;9.74;76.83;99712.33;1790055;80;21780;-66
2021/10/13 03:38:26;;;;;;;70.40;52.00;;;;;;;9.75;76.87;99711.87;1787279;78;20993;-66
2021/10/13 03:40:53;;;;;;;68.72;52.50;;;;;;;9.74;76.87;99708.85;1760050;80;20944;-66
2021/10/13 03:43:19;;;;;;;64.97;51.58;;;;;;;9.75;76.88;99707.91;1761904;80;21075;-66
2021/10/13 03:45:45;;;;;;;66.45;50.20;;;;;;;9.74;76.89;99709.69;1764472;80;21418;-66
2021/10/13 03:48:12;;;;;;;67.30;51.63;;;;;;;9.74;76.91;99711.00;1766946;80;21821;-67
2021/10/13 03:50:39;;;;;;;67.58;51.83;;;;;;;9.76;76.88;99705.63;1787492;80;21111;-66
2021/10/13 03:53:05;;;;;;;75.70;57.17;;;;;;;9.75;76.90;99714.02;1774241;80;21421;-66
2021/10/13 03:55:32;;;;;;;70.42;52.98;;;;;;;9.75;76.92;99712.70;1761290;80;21513;-66
2021/10/13 03:58:00;;;;;;;65.83;50.63;;;;;;;9.75;76.91;99714.50;1739010;80;21075;-65
2021/10/13 04:00:27;;;;;;;70.10;53.55;;;;;;;9.74;76.89;99714.96;1776711;78;21787;-66
2021/10/13 04:02:54;;;;;;;68.70;51.40;;;;;;;9.72;76.84;99718.22;1782908;80;21021;-67
2021/10/13 04:05:20;;;;;;;72.70;53.05;;;;;;;9.70;76.79;99717.52;1778581;80;21079;-67
2021/10/13 04:07:47;;;;;;;67.00;50.90;;;;;;;9.69;76.78;99709.75;1779414;80;21094;-66
2021/10/13 04:10:14;;;;;;;68.37;52.08;;;;;;;9.68;76.76;99704.13;1761750;80;21035;-66
2021/10/13 04:12:43;;;;;;;62.73;48.92;;;;;;;9.66;76.75;99696.84;1764971;80;20928;-66
2021/10/13 04:15:10;;;;;;;64.87;49.70;;;;;;;9.64;76.79;99696.95;1776956;80;21051;-66
2021/10/13 04:17:36;;;;;;;60.95;47.62;;;;;;;9.64;76.77;99697.43;1764941;80;21511;-67
2021/10/13 04:20:06;;;;;;;63.73;48.48;;;;;;;9.63;76.75;99704.51;1782911;80;20945;-67
2021/10/13 04:22:33;;;;;;;65.00;49.38;;;;;;;9.63;76.73;99705.83;1782304;80;21055;-68
2021/10/13 04:24:59;;;;;;;59.15;46.00;;;;;;;9.62;76.72;99702.84;1745440;80;21901;-68
2021/10/13 04:27:25;;;;;;;60.15;45.67;;;;;;;9.62;76.72;99704.64;1775637;80;21052;-68
2021/10/13 04:29:52;;;;;;;61.75;45.58;;;;;;;9.57;76.74;99705.05;1766250;80;21011;-68
2021/10/13 04:32:20;;;;;;;61.90;46.70;;;;;;;9.55;76.76;99699.54;1759503;80;21216;-70
2021/10/13 04:34:49;;;;;;;60.48;44.55;;;;;;;9.52;76.71;99707.23;1762826;80;21050;-67
2021/10/13 04:37:15;;;;;;;59.98;44.40;;;;;;;9.50;76.74;99713.13;1781541;80;21851;-67
2021/10/13 04:39:42;;;;;;;59.60;43.48;;;;;;;9.48;76.72;99714.23;1770736;80;21543;-67
2021/10/13 04:42:08;;;;;;;59.45;43.20;;;;;;;9.42;76.64;99722.17;1758451;80;20924;-68
2021/10/13 04:44:35;;;;;;;53.40;39.88;;;;;;;9.41;76.56;99724.45;1772544;80;21044;-68
2021/10/13 04:47:02;;;;;;;57.55;42.00;;;;;;;9.38;76.48;99732.63;1787469;80;20949;-67
2021/10/13 04:49:28;;;;;;;58.17;41.23;;;;;;;9.37;76.36;99734.44;1785604;80;21830;-69
2021/10/13 04:51:56;;;;;;;54.93;40.80;;;;;;;9.36;76.27;99731.91;1755640;81;21068;-68
2021/10/13 04:54:23;;;;;;;54.85;41.37;;;;;;;9.32;76.24;99712.05;1755885;81;20962;-68
2021/10/13 04:56:50;;;;;;;57.03;42.40;;;;;;;9.30;76.23;99718.78;1755317;81;21009;-69
2021/10/13 04:59:16;;;;;;;58.20;42.30;;;;;;;9.28;76.20;99708.02;1755607;81;21069;-68
2021/10/13 05:01:43;;;;;;;60.45;41.92;;;;;;;9.28;76.22;99715.92;1746395;81;21808;-68
2021/10/13 05:04:09;;;;;;;56.48;43.02;;;;;;;9.28;76.22;99714.13;1762815;81;20933;-68
2021/10/13 05:06:37;;;;;;;57.62;41.37;;;;;;;9.27;76.20;99715.09;1760110;79;20968;-68
2021/10/13 05:09:03;;;;;;;56.25;40.58;;;;;;;9.28;76.13;99718.08;1756273;81;21038;-69
2021/10/13 05:11:30;;;;;;;61.70;42.60;;;;;;;9.26;76.09;99716.52;1748175;81;21011;-68
2021/10/13 05:13:56;;;;;;;54.73;40.83;;;;;;;9.24;76.09;99717.97;1751618;79;22523;-69
2021/10/13 05:16:22;;;;;;;58.80;42.60;;;;;;;9.22;76.04;99712.48;1747651;81;20932;-69
2021/10/13 05:18:49;;;;;;;55.50;41.35;;;;;;;9.16;76.00;99714.65;1753799;81;20975;-68
2021/10/13 05:21:16;;;;;;;62.25;41.40;;;;;;;9.13;76.04;99710.13;1747015;81;21522;-69
2021/10/13 05:23:42;;;;;;;56.30;42.27;;;;;;;9.09;76.05;99714.00;1745763;81;21055;-69
2021/10/13 05:26:09;;;;;;;61.13;42.50;;;;;;;9.06;76.03;99716.88;1759354;81;22177;-69
2021/10/13 05:28:35;;;;;;;58.15;41.20;;;;;;;9.04;76.07;99717.00;1765289;81;21419;-69
2021/10/13 05:31:02;;;;;;;58.10;39.98;;;;;;;9.05;76.09;99719.98;1751304;81;20936;-68
2021/10/13 05:33:29;;;;;;;59.20;41.13;;;;;;;9.05;76.04;99722.62;1752012;81;20995;-70
2021/10/13 05:35:55;;;;;;;56.63;41.33;;;;;;;9.02;76.06;99722.89;1743362;81;20983;-66
2021/10/13 05:38:22;;;;;;;59.33;42.33;;;;;;;9.01;76.11;99719.91;1765362;81;22791;-67
2021/10/13 05:40:49;;;;;;;55.40;41.45;;;;;;;9.00;76.15;99724.82;1759060;80;20963;-68
2021/10/13 05:43:16;;;;;;;55.83;41.70;;;;;;;9.03;76.20;99722.41;1734965;82;20984;-67
2021/10/13 05:45:43;;;;;;;60.35;44.20;;;;;;;9.02;76.24;99724.20;1739828;81;21555;-67
2021/10/13 05:48:09;;;;;;;65.90;44.38;;;;;;;9.03;76.29;99728.51;1742498;81;20992;-68
2021/10/13 05:50:37;;;;;;;63.80;44.38;;;;;;;9.06;76.33;99732.67;1737812;81;20984;-68
2021/10/13 05:53:04;;;;;;;68.07;45.75;;;;;;;9.07;76.35;99735.21;1745425;81;21030;-67
2021/10/13 05:55:31;;;;;;;61.08;44.45;;;;;;;9.06;76.31;99730.05;1765324;81;21358;-68
2021/10/13 05:58:01;;;;;;;64.75;44.55;;;;;;;9.04;76.37;99728.02;1743389;81;20979;-67
2021/10/13 06:00:27;;;;;;;70.42;45.25;;;;;;;9.03;76.40;99730.31;1765197;81;20971;-67
2021/10/13 06:02:56;;;;;;;64.32;44.77;;;;;;;9.04;76.43;99734.13;1752040;80;21855;-66
2021/10/13 06:05:22;;;;;;;61.98;43.78;;;;;;;9.04;76.47;99734.61;1729964;81;20896;-66
2021/10/13 06:07:49;;;;;;;61.08;43.50;;;;;;;9.03;76.47;99733.77;1730369;81;20952;-65
2021/10/13 06:10:15;;;;;;;64.70;43.45;;;;;;;9.04;76.49;99730.66;1759699;81;20991;-65
2021/10/13 06:12:42;;;;;;;53.75;40.25;;;;;;;9.06;76.53;99730.05;1751235;81;20986;-66
2021/10/13 06:15:09;;;;;;;60.40;43.63;;;;;;;9.06;76.54;99733.51;1739793;81;22514;-68
2021/10/13 06:17:35;;;;;;;64.72;46.50;;;;;;;9.05;76.59;99734.48;1739558;81;20991;-68
2021/10/13 06:20:02;;;;;;;63.13;43.83;;;;;;;9.07;76.62;99742.25;1729376;81;20953;-68
2021/10/13 06:22:29;;;;;;;53.50;38.75;;;;;;;9.06;76.62;99743.22;1729900;81;21384;-70
2021/10/13 06:24:56;;;;;;;52.35;39.42;;;;;;;9.03;76.65;99743.48;1755079;81;20991;-69
2021/10/13 06:27:24;;;;;;;83.92;53.63;;;;;;;9.00;76.70;99745.06;1758872;81;21804;-69
2021/10/13 06:29:51;;;;;;;67.27;46.18;;;;;;;8.97;76.76;99753.19;1759764;81;21365;-70
2021/10/13 06:32:17;;;;;;;57.93;44.30;;;;;;;8.94;76.75;99757.41;1747531;81;20976;-69
2021/10/13 06:34:44;;;;;;;54.23;41.08;;;;;;;8.90;76.77;99750.25;1729400;83;21030;-70
2021/10/13 06:37:10;;;;;;;56.00;42.58;;;;;;;8.89;76.85;99756.48;1731596;81;21051;-69
2021/10/13 06:39:37;;;;;;;58.13;42.45;;;;;;;8.88;76.88;99754.81;1747290;81;22219;-69
2021/10/13 06:42:05;;;;;;;60.95;42.53;;;;;;;8.86;76.89;99755.39;1751259;81;21003;-69
2021/10/13 06:44:31;;;;;;;54.08;41.45;;;;;;;8.85;76.97;99753.24;1756621;81;21387;-68
2021/10/13 06:46:58;;;;;;;56.58;41.53;;;;;;;8.85;77.05;99758.99;1730101;81;21008;-68
2021/10/13 06:49:24;;;;;;;52.80;40.73;;;;;;;8.84;77.09;99756.84;1749473;81;21074;-68
2021/10/13 06:51:50;;;;;;;52.90;38.98;;;;;;;8.85;77.19;99757.20;1759662;81;22810;-68
2021/10/13 06:54:17;;;;;;;52.58;39.45;;;;;;;8.84;77.17;99754.21;1757705;81;20999;-69
2021/10/13 06:56:43;;;;;;;49.77;38.20;;;;;;;8.82;77.19;99761.89;1751132;81;20928;-70
2021/10/13 06:59:10;;;;;;;54.33;38.55;;;;;;;8.80;77.26;99755.92;1759784;81;21055;-69
2021/10/13 07:01:36;;;;;;;50.12;38.70;;;;;;;8.78;77.35;99755.19;1749750;81;20987;-69
2021/10/13 07:04:05;;;;;;;53.25;39.05;;;;;;;8.75;77.43;99754.96;1758889;81;21838;-68
2021/10/13 07:06:31;;;;;;;49.88;37.93;;;;;;;8.74;77.47;99757.72;1774460;80;20949;-68
2021/10/13 07:08:58;;;;;;;48.83;35.13;;;;;;;8.74;77.54;99764.30;1789799;80;21459;-69
2021/10/13 07:11:26;;;;;;;48.55;36.38;;;;;;;8.75;77.60;99754.96;1788361;80;20977;-68
2021/10/13 07:13:54;;;;;;;43.55;33.10;;;;;;;8.72;77.55;99748.64;1768692;80;20957;-67
2021/10/13 07:16:20;;;;;;;46.08;35.23;;;;;;;8.70;77.59;99748.42;1786455;80;22187;-68
2021/10/13 07:18:48;;;;;;;43.92;33.10;;;;;;;8.65;77.53;99745.31;1789917;80;20997;-68
2021/10/13 07:21:15;;;;;;;40.90;32.95;;;;;;;8.62;77.56;99743.77;1790298;80;20871;-68
2021/10/13 07:23:41;;;;;;;45.92;32.65;;;;;;;8.59;77.61;99744.86;1772020;80;21419;-67
2021/10/13 07:26:08;;;;;;;44.55;32.67;;;;;;;8.59;77.65;99747.98;1759066;81;21007;-67
2021/10/13 07:28:39;;;;;;;42.43;33.60;;;;;;;8.57;77.63;99755.14;1758683;81;22659;-68
2021/10/13 07:31:03;;;;;;;40.00;31.97;;;;;;;8.55;77.64;99755.27;1758718;81;21443;-69
2021/10/13 07:33:30;;;;;;;40.88;31.57;;;;;;;8.55;77.64;99753.95;1758881;81;20953;-67
2021/10/13 07:35:56;;;;;;;41.02;29.77;;;;;;;8.57;77.67;99757.77;1759188;81;21032;-69
2021/10/13 07:38:24;;;;;;;45.00;31.50;;;;;;;8.58;77.73;99752.38;1758994;81;21415;-68
2021/10/13 07:40:50;;;;;;;41.18;30.88;;;;;;;8.57;77.74;99759.09;1759962;79;21817;-67
2021/10/13 07:43:17;;;;;;;40.45;30.43;;;;;;;8.56;77.79;99758.73;1761875;80;21483;-68
2021/10/13 07:45:43;;;;;;;39.60;30.15;;;;;;;8.55;77.80;99763.16;1775592;80;20996;-67
2021/10/13 07:48:10;;;;;;;37.13;29.52;;;;;;;8.53;77.80;99761.14;1758737;81;21005;-67
2021/10/13 07:50:36;;;;;;;35.43;29.25;;;;;;;8.50;77.82;99765.83;1759790;80;21004;-66
2021/10/13 07:53:04;;;;;;;38.17;29.48;;;;;;;8.51;77.86;99764.38;1758841;81;22977;-68
2021/10/13 07:55:34;;;;;;;37.67;28.07;;;;;;;8.49;77.87;99757.55;1758684;81;20983;-68
2021/10/13 07:58:01;;;;;;;45.63;29.77;;;;;;;8.49;77.94;99761.49;1767444;80;20945;-67
2021/10/13 08:00:27;;;;;;;42.93;28.32;;;;;;;8.48;77.97;99764.61;1758645;81;22650;-68
2021/10/13 08:02:54;;;;;;;36.68;29.02;;;;;;;8.50;78.05;99769.30;1746061;80;21094;-68
2021/10/13 08:05:21;;;;;;;35.78;28.80;;;;;;;8.50;78.07;99766.66;1734373;82;21841;-68
2021/10/13 08:07:47;;;;;;;36.70;27.90;;;;;;;8.48;78.10;99763.29;1721832;81;21441;-67
2021/10/13 08:10:14;;;;;;;33.95;25.97;;;;;;;8.51;78.13;99760.44;1743286;81;21055;-69
2021/10/13 08:12:42;;;;;;;30.55;25.45;;;;;;;8.51;78.08;99758.28;1746362;81;21667;-69
2021/10/13 08:15:10;;;;;;;35.45;28.10;;;;;;;8.46;78.10;99752.06;1744529;81;21695;-69
2021/10/13 08:17:37;;;;;;;32.75;26.90;;;;;;;8.39;78.08;99750.03;1751123;81;21872;-67
2021/10/13 08:20:07;;;;;;;30.45;23.32;;;;;;;8.33;78.15;99749.55;1769702;80;20973;-68
2021/10/13 08:22:34;;;;;;;35.68;28.45;;;;;;;8.32;78.32;99750.52;1731077;81;21038;-68
2021/10/13 08:25:00;;;;;;;34.90;26.85;;;;;;;8.32;78.36;99748.37;1763015;80;21397;-68
2021/10/13 08:27:27;;;;;;;31.85;25.82;;;;;;;8.36;78.43;99747.18;1737229;80;21004;-67
2021/10/13 08:29:53;;;;;;;34.53;26.50;;;;;;;8.36;78.44;99751.13;1739857;81;21837;-67
2021/10/13 08:32:20;;;;;;;34.05;25.95;;;;;;;8.37;78.49;99754.59;1728532;81;20937;-68
2021/10/13 08:34:46;;;;;;;35.23;26.10;;;;;;;8.38;78.50;99760.20;1749652;80;21044;-68
2021/10/13 08:37:12;;;;;;;30.62;24.25;;;;;;;8.37;78.52;99756.74;1737933;81;22618;-68
2021/10/13 08:39:38;;;;;;;30.50;23.77;;;;;;;8.37;78.60;99759.38;1749796;81;20987;-68
2021/10/13 08:42:05;;;;;;;32.65;25.45;;;;;;;8.37;78.61;99763.80;1732297;82;21840;-69
2021/10/13 08:44:32;;;;;;;34.30;25.32;;;;;;;8.32;78.63;99772.87;1738263;80;21375;-69
2021/10/13 08:46:59;;;;;;;34.15;24.43;;;;;;;8.32;78.73;99777.31;1752644;81;21351;-69
2021/10/13 08:49:26;;;;;;;33.80;24.47;;;;;;;8.33;78.81;99775.03;1741010;81;20992;-68
2021/10/13 08:51:52;;;;;;;32.83;24.40;;;;;;;8.33;78.82;99769.77;1747201;81;20980;-67
2021/10/13 08:54:19;;;;;;;30.55;25.57;;;;;;;8.35;78.82;99773.63;1762122;81;21842;-66
2021/10/13 08:56:47;;;;;;;33.05;24.85;;;;;;;8.32;78.83;99766.78;1762181;81;21381;-69
2021/10/13 08:59:38;;;;;;;31.37;25.32;;;;;;;8.33;78.86;99768.45;1762349;81;20952;-69
2021/10/13 09:02:05;;;;;;;32.33;23.07;;;;;;;8.32;78.88;99770.25;1755695;81;21110;-69
2021/10/13 09:04:32;;;;;;;34.58;25.27;;;;;;;8.33;78.90;99758.77;1759674;81;21035;-67
2021/10/13 09:07:03;;;;;;;32.33;24.98;;;;;;;8.32;78.92;99758.89;1731162;82;21885;-67
2021/10/13 09:09:31;;;;;;;31.52;24.60;;;;;;;8.30;78.99;99756.87;1731090;82;21482;-68
2021/10/13 09:11:57;;;;;;;27.90;22.95;;;;;;;8.30;79.03;99756.87;1750809;81;21473;-67
2021/10/13 09:14:27;;;;;;;28.35;23.67;;;;;;;8.29;79.04;99764.37;1761414;81;21019;-68
2021/10/13 09:17:01;;;;;;;34.25;23.73;;;;;;;8.26;79.13;99760.20;1761759;81;21035;-68
2021/10/13 09:19:31;;;;;;;32.05;23.73;;;;;;;8.26;79.12;99763.31;1761426;81;21804;-68
2021/10/13 09:22:00;;;;;;;31.42;23.83;;;;;;;8.23;79.15;99756.98;1753105;81;21042;-68
2021/10/13 09:24:30;;;;;;;27.32;20.62;;;;;;;8.23;79.20;99759.62;1731175;82;21003;-68
2021/10/13 09:27:00;;;;;;;32.53;24.23;;;;;;;8.25;79.25;99755.06;1733693;81;21026;-68
2021/10/13 09:29:26;;;;;;;28.12;22.45;;;;;;;8.23;79.24;99746.47;1740772;82;21456;-68
2021/10/13 09:31:59;;;;;;;32.70;24.72;;;;;;;8.23;79.27;99747.30;1717019;82;21786;-68
2021/10/13 09:34:26;;;;;;;29.92;24.75;;;;;;;8.24;79.27;99744.19;1756805;79;21050;-68
2021/10/13 09:36:59;;;;;;;27.62;23.20;;;;;;;8.22;79.28;99747.42;1761552;81;21466;-68
2021/10/13 09:39:22;;;;;;;28.02;23.22;;;;;;;8.20;79.37;99742.74;1759715;81;21098;-68
2021/10/13 09:42:09;;;;;;;31.50;24.85;;;;;;;8.21;79.40;99743.97;1761351;81;21050;-67
2021/10/13 09:44:42;;;;;;;31.60;25.17;;;;;;;8.19;79.44;99744.53;1753518;81;21900;-67
2021/10/13 09:47:12;;;;;;;33.90;26.37;;;;;;;8.19;79.54;99739.76;1731613;82;21143;-68
2021/10/13 09:49:43;;;;;;;32.30;23.92;;;;;;;8.22;79.61;99740.85;1731256;82;20999;-67
2021/10/13 09:52:19;;;;;;;30.10;24.35;;;;;;;8.21;79.67;99737.38;1731159;82;21011;-67
2021/10/13 09:54:47;;;;;;;29.40;24.05;;;;;;;8.21;79.75;99735.23;1704069;81;21074;-67
2021/10/13 09:57:23;;;;;;;29.23;23.15;;;;;;;8.21;79.79;99736.07;1722676;82;21947;-68
2021/10/13 10:00:00;;;;;;;24.47;20.68;;;;;;;8.24;79.83;99740.24;1731158;82;21023;-68
2021/10/13 10:02:31;;;;;;;31.85;22.95;;;;;;;8.25;79.89;99734.85;1702227;81;21019;-67
2021/10/13 10:05:02;;;;;;;30.52;23.30;;;;;;;8.24;79.87;99740.24;1731159;81;21003;-67
2021/10/13 10:07:30;;;;;;;29.57;23.35;;;;;;;8.21;79.90;99740.50;1730986;82;21479;-67
2021/10/13 10:10:09;;;;;;;26.73;23.57;;;;;;;8.18;79.90;99736.29;1731269;82;22477;-68
2021/10/13 10:13:03;;;;;;;28.15;22.52;;;;;;;8.15;79.96;99735.71;1732028;81;21059;-68
2021/10/13 10:15:46;;;;;;;30.10;23.07;;;;;;;8.11;80.03;99724.61;1731390;82;21043;-68
2021/10/13 10:18:33;;;;;;;26.60;21.57;;;;;;;8.12;80.19;99713.61;1731470;82;21039;-68
2021/10/13 10:21:21;;;;;;;27.80;22.40;;;;;;;8.17;80.31;99718.84;1731111;82;21030;-68
2021/10/13 10:23:55;;;;;;;25.55;22.02;;;;;;;8.18;80.34;99714.41;1731111;82;21846;-67
2021/10/13 10:26:29;;;;;;;29.07;22.58;;;;;;;8.19;80.36;99713.45;1731194;82;21011;-69
2021/10/13 10:29:02;;;;;;;27.45;22.07;;;;;;;8.17;80.35;99720.16;1730962;82;21055;-69
2021/10/13 10:31:31;;;;;;;29.87;22.52;;;;;;;8.18;80.41;99711.30;1730118;81;21018;-68
2021/10/13 10:34:11;;;;;;;27.22;23.32;;;;;;;8.20;80.45;99706.78;1731136;82;21011;-68
2021/10/13 10:36:48;;;;;;;28.55;22.82;;;;;;;8.19;80.46;99709.50;1740135;80;21067;-69
2021/10/13 10:39:17;;;;;;;28.60;23.87;;;;;;;8.20;80.51;99706.78;1746616;82;21011;-69
2021/10/13 10:41:52;;;;;;;30.20;23.25;;;;;;;8.22;80.58;99702.22;1746371;81;21036;-69
2021/10/13 10:44:32;;;;;;;27.65;22.75;;;;;;;8.27;80.64;99691.31;1746466;81;21090;-70
2021/10/13 10:47:04;;;;;;;28.20;22.65;;;;;;;8.25;80.61;99679.60;1750562;81;21546;-69
2021/10/13 10:49:50;;;;;;;24.37;21.68;;;;;;;8.25;80.65;99674.83;1761482;81;21850;-69
2021/10/13 10:52:22;;;;;;;27.58;23.02;;;;;;;8.22;80.69;99675.91;1761282;81;20992;-70
2021/10/13 10:55:07;;;;;;;26.95;21.65;;;;;;;8.22;80.72;99686.92;1760865;81;21034;-70
2021/10/13 10:57:47;;;;;;;24.85;22.00;;;;;;;8.23;80.79;99681.53;1761699;81;20960;-70
2021/10/13 11:00:28;;;;;;;28.20;23.60;;;;;;;8.22;80.80;99687.75;1761406;81;21465;-70
2021/10/13 11:03:22;;;;;;;28.23;23.92;;;;;;;8.21;80.84;99678.67;1741278;81;22533;-70
2021/10/13 11:05:49;;;;;;;28.32;22.25;;;;;;;8.19;80.87;99665.62;1724710;82;21423;-70
2021/10/13 11:08:16;;;;;;;26.80;23.25;;;;;;;8.20;80.96;99679.61;1711714;82;21373;-69
2021/10/13 11:10:42;;;;;;;25.80;22.30;;;;;;;8.20;81.00;99675.21;1787835;80;21042;-69
2021/10/13 11:13:09;;;;;;;27.77;23.62;;;;;;;8.20;81.05;99660.74;1787579;80;21458;-69
2021/10/13 11:15:38;;;;;;;27.77;23.02;;;;;;;8.20;81.09;99650.67;1797990;78;21734;-70
2021/10/13 11:18:13;;;;;;;28.20;23.35;;;;;;;8.20;81.12;99656.80;1819892;78;21019;-68
2021/10/13 11:20:40;;;;;;;27.52;22.07;;;;;;;8.17;81.16;99650.45;1818976;78;21473;-66
2021/10/13 11:23:07;;;;;;;28.90;23.22;;;;;;;8.20;81.24;99653.30;1820470;78;21022;-69
2021/10/13 11:25:34;;;;;;;26.55;22.85;;;;;;;8.22;81.31;99662.77;1820122;78;21018;-70
2021/10/13 11:28:07;;;;;;;27.22;21.55;;;;;;;8.22;81.28;99663.24;1821043;78;21810;-68
2021/10/13 11:30:45;;;;;;;27.25;23.07;;;;;;;8.23;81.31;99667.06;1814884;78;20927;-68
2021/10/13 11:33:15;;;;;;;24.35;21.73;;;;;;;8.23;81.30;99676.27;1789158;80;20963;-69
2021/10/13 11:35:43;;;;;;;26.62;21.73;;;;;;;8.25;81.36;99666.94;1794526;78;20951;-69
2021/10/13 11:38:15;;;;;;;26.12;22.52;;;;;;;8.27;81.41;99659.27;1798034;78;21448;-69